Time;durP1;ratioP1;P1;durP2;ratioP2;P2;SDS_P1;SDS_P2;PMS_P1;PMS_P2;Temp;Humidity;BMP_temperature;BMP_pressure;BME280_temperature;BME280_humidity;BME280_pressure;Samples;Min_cycle;Max_cycle;Signal;HPM_P1;HPM_P2
2023/10/25 00:00:28;;;;;;;49.67;47.33;;;9.40;99.90;;;;;;4893719;29;20705;-74
2023/10/25 00:02:53;;;;;;;39.23;36.90;;;9.40;99.90;;;;;;4875922;29;20292;-74
2023/10/25 00:05:19;;;;;;;40.33;38.27;;;9.40;99.90;;;;;;4877639;29;20043;-74
2023/10/25 00:07:45;;;;;;;60.23;57.33;;;9.40;99.90;;;;;;4880511;29;20512;-74
2023/10/25 00:10:10;;;;;;;43.53;41.07;;;9.30;99.90;;;;;;4878208;29;20143;-74
2023/10/25 00:12:37;;;;;;;56.63;53.63;;;9.30;99.90;;;;;;4878914;29;20040;-74
2023/10/25 00:15:04;;;;;;;65.03;62.00;;;9.20;99.90;;;;;;4893842;29;20040;-74
2023/10/25 00:17:30;;;;;;;53.67;50.87;;;9.20;99.90;;;;;;4874840;29;20863;-74
2023/10/25 00:19:55;;;;;;;49.53;47.07;;;9.10;99.90;;;;;;4884773;29;20292;-74
2023/10/25 00:22:21;;;;;;;43.07;40.67;;;9.10;99.90;;;;;;4883652;29;20040;-74
2023/10/25 00:24:46;;;;;;;42.70;40.50;;;9.10;99.90;;;;;;4906848;29;20512;-74
2023/10/25 00:27:12;;;;;;;42.97;40.70;;;9.10;99.90;;;;;;4877508;29;20148;-74
2023/10/25 00:29:38;;;;;;;36.83;35.03;;;9.10;99.90;;;;;;4884362;29;20151;-74
2023/10/25 00:32:05;;;;;;;57.50;54.27;;;9.10;99.90;;;;;;4898182;29;20084;-75
2023/10/25 00:34:31;;;;;;;37.70;35.70;;;9.00;99.90;;;;;;4896228;29;20070;-75
2023/10/25 00:36:57;;;;;;;58.53;55.27;;;9.00;99.90;;;;;;4893936;29;20987;-75
2023/10/25 00:39:23;;;;;;;51.93;49.17;;;9.00;99.90;;;;;;4875738;29;20064;-74
2023/10/25 00:41:48;;;;;;;45.20;42.80;;;9.00;99.90;;;;;;4897408;29;20364;-74
2023/10/25 00:44:14;;;;;;;48.03;45.27;;;9.00;99.90;;;;;;4877400;29;20048;-74
2023/10/25 00:46:40;;;;;;;46.37;43.83;;;8.90;99.90;;;;;;4890875;29;20478;-74
2023/10/25 00:49:07;;;;;;;60.57;57.53;;;8.90;99.90;;;;;;4883786;29;20202;-74
2023/10/25 00:51:33;;;;;;;42.67;40.47;;;8.90;99.90;;;;;;4894218;29;20292;-76
2023/10/25 00:54:01;;;;;;;58.53;55.67;;;8.90;99.90;;;;;;4900191;29;20363;-74
2023/10/25 00:56:31;;;;;;;52.70;50.00;;;8.80;99.90;;;;;;4879538;29;20037;-74
2023/10/25 00:58:57;;;;;;;51.40;48.67;;;8.80;99.90;;;;;;4891916;29;20289;-74
2023/10/25 01:01:26;;;;;;;37.23;35.17;;;8.90;99.90;;;;;;4892353;29;20702;-74
2023/10/25 01:03:52;;;;;;;64.03;60.27;;;8.80;99.90;;;;;;4876960;29;20292;-74
2023/10/25 01:06:18;;;;;;;65.13;61.67;;;8.80;99.90;;;;;;4891998;29;20352;-75
2023/10/25 01:08:44;;;;;;;54.17;51.53;;;8.80;99.90;;;;;;4877035;29;20288;-75
2023/10/25 01:11:11;;;;;;;54.43;51.27;;;8.90;99.90;;;;;;4876677;29;20041;-74
2023/10/25 01:13:37;;;;;;;43.53;40.80;;;8.90;99.90;;;;;;4876319;29;20404;-74
2023/10/25 01:16:03;;;;;;;53.33;50.33;;;8.90;99.90;;;;;;4883930;29;20288;-74
2023/10/25 01:18:29;;;;;;;57.47;54.23;;;8.90;99.90;;;;;;4891960;29;20857;-75
2023/10/25 01:20:55;;;;;;;55.20;51.93;;;9.00;99.90;;;;;;4893191;29;20365;-74
2023/10/25 01:23:21;;;;;;;44.97;42.33;;;9.00;99.90;;;;;;4896760;29;20084;-75
2023/10/25 01:25:46;;;;;;;58.33;55.23;;;9.00;99.90;;;;;;4874833;29;20331;-75
2023/10/25 01:28:12;;;;;;;60.43;57.30;;;9.10;99.90;;;;;;4888325;29;20068;-74
2023/10/25 01:30:39;;;;;;;85.97;81.53;;;9.10;99.90;;;;;;4896601;29;20139;-74
2023/10/25 01:33:05;;;;;;;53.00;49.90;;;9.10;99.90;;;;;;4874605;29;20229;-74
2023/10/25 01:35:32;;;;;;;102.33;96.93;;;9.10;99.90;;;;;;4878188;29;20301;-75
2023/10/25 01:37:57;;;;;;;56.80;53.60;;;9.10;99.90;;;;;;4873581;29;20849;-75
2023/10/25 01:40:23;;;;;;;76.20;72.47;;;9.10;99.90;;;;;;4900255;29;20281;-75
2023/10/25 01:42:51;;;;;;;45.50;42.40;;;9.10;99.90;;;;;;4903597;29;20527;-75
2023/10/25 01:45:18;;;;;;;74.97;71.13;;;9.00;99.90;;;;;;4893868;29;20379;-74
2023/10/25 01:47:44;;;;;;;53.83;51.00;;;9.00;99.90;;;;;;4891804;29;20326;-74
2023/10/25 01:50:09;;;;;;;60.73;57.03;;;8.90;99.90;;;;;;4883944;29;20055;-74
2023/10/25 01:52:35;;;;;;;58.07;54.63;;;8.90;99.90;;;;;;4895291;29;20072;-75
2023/10/25 01:55:01;;;;;;;56.67;52.37;;;8.90;99.90;;;;;;4898989;29;20569;-74
2023/10/25 01:57:27;;;;;;;55.60;52.20;;;8.80;99.90;;;;;;4882662;29;20041;-74
2023/10/25 01:59:52;;;;;;;64.53;60.80;;;8.80;99.90;;;;;;4877710;29;20127;-74
2023/10/25 02:02:19;;;;;;;55.43;51.97;;;8.70;99.90;;;;;;4893757;29;20063;-74
2023/10/25 02:04:45;;;;;;;52.30;48.77;;;8.70;99.90;;;;;;4904782;29;20056;-74
2023/10/25 02:07:11;;;;;;;64.43;60.73;;;8.70;99.90;;;;;;4876708;29;20797;-74
2023/10/25 02:09:36;;;;;;;55.87;51.67;;;8.60;99.90;;;;;;4893945;29;20047;-75
2023/10/25 02:12:02;;;;;;;40.90;38.00;;;8.60;99.90;;;;;;4890828;29;20520;-74
2023/10/25 02:14:28;;;;;;;54.60;51.37;;;8.60;99.90;;;;;;4878807;29;20045;-74
2023/10/25 02:16:54;;;;;;;59.00;55.20;;;8.60;99.90;;;;;;4877313;29;20036;-74
2023/10/25 02:19:20;;;;;;;56.13;51.97;;;8.60;99.90;;;;;;4894349;29;20041;-74
2023/10/25 02:21:46;;;;;;;59.87;56.10;;;8.60;99.90;;;;;;4895047;29;20068;-74
2023/10/25 02:24:14;;;;;;;57.53;54.00;;;8.60;99.90;;;;;;4877010;29;20041;-74
2023/10/25 02:26:40;;;;;;;67.97;63.43;;;8.60;99.90;;;;;;4898414;29;20371;-74
2023/10/25 02:29:06;;;;;;;59.50;55.67;;;8.60;99.90;;;;;;4881339;29;20293;-74
2023/10/25 02:31:36;;;;;;;67.37;63.10;;;8.60;99.90;;;;;;4899996;29;20355;-74
2023/10/25 02:34:02;;;;;;;65.87;61.87;;;8.60;99.90;;;;;;4879892;29;20087;-74
2023/10/25 02:36:29;;;;;;;54.17;50.53;;;8.60;99.90;;;;;;4895313;29;20340;-74
2023/10/25 02:38:54;;;;;;;47.92;44.50;;;8.60;99.90;;;;;;4882545;29;20730;-74
2023/10/25 02:41:20;;;;;;;63.30;58.93;;;8.50;99.90;;;;;;4896491;29;20075;-74
2023/10/25 02:43:46;;;;;;;72.10;67.70;;;8.50;99.90;;;;;;4881720;29;20047;-74
2023/10/25 02:46:12;;;;;;;47.53;44.00;;;8.50;99.90;;;;;;4901585;29;20044;-76
2023/10/25 02:48:38;;;;;;;63.75;59.72;;;8.50;99.90;;;;;;4907199;29;20052;-76
2023/10/25 02:51:05;;;;;;;58.53;54.63;;;8.50;99.90;;;;;;4877442;29;20414;-76
2023/10/25 02:53:31;;;;;;;60.30;56.80;;;8.40;99.90;;;;;;4900143;29;20037;-76
2023/10/25 02:56:02;;;;;;;57.07;53.57;;;8.30;99.90;;;;;;4885796;29;20099;-76
2023/10/25 02:58:28;;;;;;;55.97;51.97;;;8.30;99.90;;;;;;4897326;29;20289;-76
2023/10/25 03:00:53;;;;;;;51.00;47.97;;;8.20;99.90;;;;;;4892017;29;20316;-76
2023/10/25 03:03:19;;;;;;;57.73;53.83;;;8.20;99.90;;;;;;4894997;29;20041;-76
2023/10/25 03:05:45;;;;;;;56.97;53.17;;;8.10;99.90;;;;;;4890024;29;20079;-76
2023/10/25 03:08:11;;;;;;;41.27;37.97;;;8.10;99.90;;;;;;4885303;29;20041;-76
2023/10/25 03:10:36;;;;;;;44.90;42.00;;;8.10;99.90;;;;;;4875745;29;20046;-76
2023/10/25 03:13:02;;;;;;;50.97;47.67;;;8.00;99.90;;;;;;4895095;29;20052;-76
2023/10/25 03:15:28;;;;;;;63.90;59.97;;;8.00;99.90;;;;;;4895595;29;20051;-76
2023/10/25 03:17:54;;;;;;;62.20;57.53;;;7.90;99.90;;;;;;4893647;29;20048;-76
2023/10/25 03:20:20;;;;;;;57.53;53.88;;;7.90;99.90;;;;;;4891292;29;20123;-76
2023/10/25 03:22:46;;;;;;;61.67;57.50;;;7.80;99.90;;;;;;4879620;29;20557;-76
2023/10/25 03:25:12;;;;;;;56.47;52.80;;;7.80;99.90;;;;;;4879578;29;20297;-76
2023/10/25 03:27:38;;;;;;;58.50;54.17;;;7.70;99.90;;;;;;4880537;29;20048;-76
2023/10/25 03:30:04;;;;;;;59.57;55.47;;;7.70;99.90;;;;;;4900558;29;20108;-76
2023/10/25 03:32:30;;;;;;;67.80;63.28;;;7.60;99.90;;;;;;4879153;29;20048;-76
2023/10/25 03:34:56;;;;;;;48.47;45.33;;;7.60;99.90;;;;;;4894803;29;20047;-76
2023/10/25 03:37:21;;;;;;;41.80;39.00;;;7.60;99.90;;;;;;4899316;29;20044;-76
2023/10/25 03:39:48;;;;;;;62.97;58.93;;;7.60;99.90;;;;;;4898109;29;20040;-76
2023/10/25 03:42:14;;;;;;;62.03;58.10;;;7.60;99.90;;;;;;4897151;29;20525;-76
2023/10/25 03:44:39;;;;;;;74.70;69.97;;;7.60;99.90;;;;;;4895707;29;20051;-76
2023/10/25 03:47:05;;;;;;;68.60;64.20;;;7.60;99.90;;;;;;4889415;29;20040;-76
2023/10/25 03:49:31;;;;;;;74.50;69.60;;;7.60;99.90;;;;;;4895770;29;20559;-76
2023/10/25 03:51:57;;;;;;;90.07;84.93;;;7.50;99.90;;;;;;4897920;29;20382;-76
2023/10/25 03:54:22;;;;;;;72.23;67.73;;;7.60;99.90;;;;;;4900771;29;20099;-76
2023/10/25 03:56:48;;;;;;;77.50;72.43;;;7.50;99.90;;;;;;4898002;29;20052;-74
2023/10/25 03:59:15;;;;;;;77.13;72.40;;;7.50;99.90;;;;;;4900162;29;20515;-75
2023/10/25 04:01:41;;;;;;;74.82;69.63;;;7.50;99.90;;;;;;4878285;29;20057;-75
2023/10/25 04:04:07;;;;;;;71.27;66.27;;;7.40;99.90;;;;;;4895723;29;20055;-75
2023/10/25 04:06:33;;;;;;;81.78;76.43;;;7.40;99.90;;;;;;4891004;29;20481;-75
2023/10/25 04:08:59;;;;;;;68.93;64.13;;;7.40;99.90;;;;;;4879989;29;20051;-74
2023/10/25 04:11:24;;;;;;;71.57;66.37;;;7.40;99.90;;;;;;4877430;29;20390;-74
2023/10/25 04:13:50;;;;;;;81.47;76.10;;;7.40;99.90;;;;;;4877200;29;20076;-74
2023/10/25 04:16:16;;;;;;;78.60;73.07;;;7.30;99.90;;;;;;4877846;29;20052;-74
2023/10/25 04:18:41;;;;;;;78.23;72.33;;;7.30;99.90;;;;;;4877262;29;20051;-74
2023/10/25 04:21:12;;;;;;;68.77;63.30;;;7.30;99.90;;;;;;4875224;29;20104;-74
2023/10/25 04:23:38;;;;;;;70.25;65.05;;;7.20;99.90;;;;;;4874764;29;20115;-75
2023/10/25 04:26:04;;;;;;;78.93;73.82;;;7.20;99.90;;;;;;4877243;29;20040;-75
2023/10/25 04:28:30;;;;;;;68.53;63.38;;;7.10;99.90;;;;;;4870108;29;20076;-75
2023/10/25 04:30:56;;;;;;;77.90;72.50;;;7.10;99.90;;;;;;4893921;29;20078;-74
2023/10/25 04:33:21;;;;;;;69.87;64.03;;;7.10;99.90;;;;;;4901649;29;20139;-74
2023/10/25 04:35:47;;;;;;;76.33;71.10;;;7.00;99.90;;;;;;4897937;29;20037;-74
2023/10/25 04:38:13;;;;;;;68.83;63.40;;;7.00;99.90;;;;;;4900905;29;20044;-74
2023/10/25 04:40:38;;;;;;;66.20;60.37;;;6.90;99.90;;;;;;4895562;29;20040;-75
2023/10/25 04:43:04;;;;;;;79.33;73.63;;;6.90;99.90;;;;;;4900559;29;20051;-74
2023/10/25 04:45:30;;;;;;;70.40;65.13;;;6.90;99.90;;;;;;4891727;29;20091;-75
2023/10/25 04:47:56;;;;;;;73.40;67.50;;;6.90;99.90;;;;;;4884674;29;20040;-75
2023/10/25 04:50:21;;;;;;;80.20;74.00;;;6.80;99.90;;;;;;4880186;29;20052;-74
2023/10/25 04:52:50;;;;;;;78.03;72.27;;;6.90;99.90;;;;;;4894544;29;20155;-75
2023/10/25 04:55:16;;;;;;;91.72;84.85;;;6.80;99.90;;;;;;4893708;29;20055;-75
2023/10/25 04:57:42;;;;;;;81.70;75.27;;;6.80;99.90;;;;;;4891810;29;20467;-74
2023/10/25 05:00:09;;;;;;;87.57;81.17;;;6.80;99.90;;;;;;4873413;29;20521;-74
2023/10/25 05:02:37;;;;;;;71.20;65.55;;;6.70;99.90;;;;;;4877058;29;20071;-74
2023/10/25 05:05:04;;;;;;;75.53;69.75;;;6.70;99.90;;;;;;4887756;29;20041;-74
2023/10/25 05:07:30;;;;;;;89.70;83.32;;;6.70;99.90;;;;;;4896046;29;20525;-74
2023/10/25 05:09:56;;;;;;;60.90;55.47;;;6.70;99.90;;;;;;4877572;29;20097;-74
2023/10/25 05:12:36;;;;;;;116.95;109.82;;;6.70;99.90;;;;;;4874916;29;20285;-74
2023/10/25 05:15:03;;;;;;;111.53;104.72;;;6.70;99.90;;;;;;4892330;29;20741;-74
2023/10/25 05:17:28;;;;;;;80.82;75.20;;;6.70;99.90;;;;;;4893173;29;20047;-74
2023/10/25 05:19:54;;;;;;;80.70;75.23;;;6.70;99.90;;;;;;4876611;29;20053;-75
2023/10/25 05:22:27;;;;;;;89.72;83.75;;;6.70;99.90;;;;;;4879379;29;20056;-74
2023/10/25 05:24:54;;;;;;;72.15;66.80;;;6.60;99.90;;;;;;4894492;29;20096;-74
2023/10/25 05:27:20;;;;;;;97.28;90.72;;;6.60;99.90;;;;;;4883160;29;20111;-74
2023/10/25 05:29:46;;;;;;;140.80;132.70;;;6.60;99.90;;;;;;4895251;29;20047;-74
2023/10/25 05:32:17;;;;;;;79.53;73.93;;;6.60;99.90;;;;;;4896250;29;20040;-74
2023/10/25 05:34:43;;;;;;;82.25;76.22;;;6.60;99.90;;;;;;4889902;29;20056;-74
2023/10/25 05:37:09;;;;;;;89.05;83.00;;;6.60;99.90;;;;;;4882031;29;20048;-74
2023/10/25 05:39:35;;;;;;;86.72;80.43;;;6.60;99.90;;;;;;4892556;29;20052;-75
2023/10/25 05:42:04;;;;;;;59.95;54.85;;;6.60;99.90;;;;;;4894062;29;20033;-75
2023/10/25 05:44:31;;;;;;;63.95;58.85;;;6.60;99.90;;;;;;4876673;29;20096;-74
2023/10/25 05:46:57;;;;;;;58.58;54.03;;;6.50;99.90;;;;;;4874307;29;20053;-75
2023/10/25 05:49:23;;;;;;;261.70;249.50;;;6.50;99.90;;;;;;4891442;29;20068;-75
2023/10/25 05:51:49;;;;;;;209.33;199.13;;;6.50;99.90;;;;;;4891507;29;20519;-74
2023/10/25 05:54:15;;;;;;;249.13;237.65;;;6.40;99.90;;;;;;4896500;29;20088;-74
2023/10/25 05:56:41;;;;;;;256.63;244.82;;;6.40;99.90;;;;;;4897374;29;20071;-75
2023/10/25 05:59:07;;;;;;;239.60;228.10;;;6.40;99.90;;;;;;4880095;29;20040;-75
2023/10/25 06:01:51;;;;;;;230.93;220.15;;;6.40;99.90;;;;;;4901463;29;20049;-75
2023/10/25 06:04:19;;;;;;;243.10;231.40;;;6.40;99.90;;;;;;4879600;29;20040;-75
2023/10/25 06:06:45;;;;;;;248.65;237.05;;;6.40;99.90;;;;;;4880135;29;20048;-75
2023/10/25 06:09:13;;;;;;;243.77;232.45;;;6.40;99.90;;;;;;4877916;29;20703;-75
2023/10/25 06:11:40;;;;;;;215.88;205.57;;;6.40;99.90;;;;;;4880876;29;20128;-75
2023/10/25 06:14:07;;;;;;;247.38;235.55;;;6.40;99.90;;;;;;4882396;29;20175;-75
2023/10/25 06:16:33;;;;;;;200.07;190.65;;;6.50;99.90;;;;;;4887728;29;20137;-76
2023/10/25 06:18:59;;;;;;;248.23;236.57;;;6.50;99.90;;;;;;4895953;29;20040;-77
2023/10/25 06:21:24;;;;;;;270.33;257.90;;;6.50;99.90;;;;;;4897420;29;20044;-76
2023/10/25 06:23:51;;;;;;;222.83;212.10;;;6.60;99.90;;;;;;4896016;29;20040;-76
2023/10/25 06:26:17;;;;;;;245.82;234.40;;;6.50;99.90;;;;;;4899701;29;20075;-76
2023/10/25 06:28:43;;;;;;;243.27;232.30;;;6.50;99.90;;;;;;4885754;29;20036;-76
2023/10/25 06:31:14;;;;;;;260.73;248.73;;;6.50;99.90;;;;;;4884065;29;20040;-76
2023/10/25 06:33:41;;;;;;;233.65;222.65;;;6.50;99.90;;;;;;4901709;29;20047;-76
2023/10/25 06:36:08;;;;;;;267.73;255.43;;;6.50;99.90;;;;;;4894623;29;20104;-76
2023/10/25 06:38:34;;;;;;;243.52;232.32;;;6.50;99.90;;;;;;4903473;29;20048;-76
2023/10/25 06:41:00;;;;;;;217.90;207.95;;;6.50;99.90;;;;;;4904949;29;20051;-76
2023/10/25 06:43:30;;;;;;;238.23;226.93;;;6.40;99.90;;;;;;4889671;29;20040;-76
2023/10/25 06:45:58;;;;;;;224.52;214.32;;;6.40;99.90;;;;;;4882219;29;20045;-76
2023/10/25 06:48:24;;;;;;;238.05;226.88;;;6.40;99.90;;;;;;4882841;29;20075;-76
2023/10/25 06:50:53;;;;;;;256.75;245.30;;;6.40;99.90;;;;;;4887286;29;20551;-76
2023/10/25 06:53:20;;;;;;;227.38;216.65;;;6.40;99.90;;;;;;4884562;29;20072;-76
2023/10/25 06:55:46;;;;;;;269.75;257.45;;;6.40;99.90;;;;;;4887381;29;20556;-76
2023/10/25 06:58:12;;;;;;;238.40;227.47;;;6.40;99.90;;;;;;4899504;29;20040;-76
2023/10/25 07:00:41;;;;;;;249.23;238.23;;;6.40;99.90;;;;;;4883421;29;20051;-76
2023/10/25 07:03:10;;;;;;;233.63;222.90;;;6.40;99.90;;;;;;4897837;29;20191;-76
2023/10/25 07:05:36;;;;;;;249.30;238.18;;;6.40;99.90;;;;;;4886853;29;20045;-76
2023/10/25 07:08:02;;;;;;;257.08;245.45;;;6.40;99.90;;;;;;4881358;29;20123;-76
2023/10/25 07:10:29;;;;;;;249.30;238.15;;;6.40;99.90;;;;;;4896268;29;20488;-75
2023/10/25 07:12:54;;;;;;;261.40;249.27;;;6.40;99.90;;;;;;4881608;29;20157;-75
2023/10/25 07:15:20;;;;;;;231.07;220.60;;;6.40;99.90;;;;;;4881339;29;20127;-75
2023/10/25 07:17:46;;;;;;;222.83;212.90;;;6.40;99.90;;;;;;4898367;29;20041;-76
2023/10/25 07:20:12;;;;;;;232.10;221.57;;;6.40;99.90;;;;;;4896736;29;20037;-75
2023/10/25 07:22:38;;;;;;;232.48;221.80;;;6.40;99.90;;;;;;4902584;29;20128;-75
2023/10/25 07:25:08;;;;;;;222.77;212.57;;;6.30;99.90;;;;;;4880866;29;20047;-75
2023/10/25 07:27:36;;;;;;;220.30;210.27;;;6.40;99.90;;;;;;4880189;29;20055;-76
2023/10/25 07:30:03;;;;;;;217.23;207.43;;;6.30;99.90;;;;;;4883663;29;20044;-76
2023/10/25 07:32:30;;;;;;;236.48;225.88;;;6.30;99.90;;;;;;4879076;29;20044;-76
2023/10/25 07:34:56;;;;;;;245.75;234.82;;;6.30;99.90;;;;;;4879376;29;20060;-76
2023/10/25 07:37:22;;;;;;;236.40;225.63;;;6.30;99.90;;;;;;4879153;29;20489;-76
2023/10/25 07:39:47;;;;;;;201.83;192.60;;;6.30;99.90;;;;;;4888981;29;20122;-76
2023/10/25 07:42:13;;;;;;;246.17;235.27;;;6.30;99.90;;;;;;4898815;29;20079;-76
2023/10/25 07:44:39;;;;;;;221.00;211.17;;;6.30;99.90;;;;;;4897625;29;20044;-76
2023/10/25 07:47:04;;;;;;;210.43;200.40;;;6.30;99.90;;;;;;4880815;29;20386;-76
2023/10/25 07:49:36;;;;;;;232.93;222.13;;;6.40;99.90;;;;;;4877681;29;20135;-76
2023/10/25 07:52:03;;;;;;;228.23;218.23;;;6.40;99.90;;;;;;4887634;29;20036;-76
2023/10/25 07:54:29;;;;;;;226.40;216.18;;;6.50;99.90;;;;;;4887960;29;20060;-76
2023/10/25 07:56:54;;;;;;;210.07;200.50;;;6.50;99.90;;;;;;4896339;29;20052;-76
2023/10/25 07:59:20;;;;;;;253.70;241.97;;;6.60;99.90;;;;;;4879264;29;20055;-76
2023/10/25 08:01:46;;;;;;;253.80;242.27;;;6.60;99.90;;;;;;4877372;29;20055;-76
2023/10/25 08:04:13;;;;;;;246.23;235.15;;;6.70;99.90;;;;;;4896035;29;20044;-76
2023/10/25 08:06:39;;;;;;;257.70;245.98;;;6.80;99.90;;;;;;4896684;29;20048;-76
2023/10/25 08:09:04;;;;;;;290.20;277.07;;;6.90;99.90;;;;;;4889815;29;20048;-76
2023/10/25 08:11:34;;;;;;;289.90;276.93;;;7.00;99.90;;;;;;4871538;29;20092;-76
2023/10/25 08:14:00;;;;;;;278.67;266.20;;;7.10;99.90;;;;;;4880164;29;20040;-76
2023/10/25 08:16:26;;;;;;;290.27;277.10;;;7.20;99.90;;;;;;4876241;29;20557;-76
2023/10/25 08:18:52;;;;;;;282.33;269.77;;;7.20;99.90;;;;;;4893612;29;20040;-76
2023/10/25 08:21:17;;;;;;;268.83;256.30;;;7.30;99.90;;;;;;4890897;29;20108;-76
2023/10/25 08:23:46;;;;;;;299.00;285.50;;;7.40;99.90;;;;;;4891225;29;20072;-76
2023/10/25 08:26:12;;;;;;;328.08;313.05;;;7.50;99.90;;;;;;4890242;29;20561;-75
2023/10/25 08:28:38;;;;;;;301.83;288.23;;;7.60;99.90;;;;;;4894044;29;20048;-76
2023/10/25 08:31:14;;;;;;;349.63;333.83;;;7.70;99.90;;;;;;4890569;29;20050;-76
2023/10/25 08:33:40;;;;;;;310.33;296.35;;;7.80;99.90;;;;;;4864725;29;20131;-76
2023/10/25 08:36:06;;;;;;;333.35;318.00;;;7.90;99.90;;;;;;4878551;29;20040;-76
2023/10/25 08:38:32;;;;;;;322.05;307.10;;;8.00;99.90;;;;;;4872036;29;20037;-76
2023/10/25 08:41:05;;;;;;;332.40;317.30;;;8.10;99.90;;;;;;4875335;29;20080;-76
2023/10/25 08:43:34;;;;;;;318.53;303.70;;;8.20;99.90;;;;;;4876662;29;20466;-76
2023/10/25 08:46:05;;;;;;;318.47;303.97;;;8.20;99.90;;;;;;4883528;29;20833;-76
2023/10/25 08:48:31;;;;;;;257.67;245.88;;;8.30;99.90;;;;;;4879749;29;20388;-76
2023/10/25 08:50:59;;;;;;;297.57;284.13;;;8.40;99.90;;;;;;4889165;29;20045;-76
2023/10/25 08:53:29;;;;;;;293.17;279.87;;;8.40;99.90;;;;;;4879478;29;20289;-76
2023/10/25 08:55:56;;;;;;;333.03;317.57;;;8.50;99.90;;;;;;4893520;29;20681;-76
2023/10/25 08:58:24;;;;;;;328.77;313.80;;;8.50;99.90;;;;;;4893224;29;20859;-76
2023/10/25 09:00:51;;;;;;;319.80;305.07;;;8.60;99.90;;;;;;4888473;29;20293;-76
2023/10/25 09:03:31;;;;;;;320.80;306.17;;;8.70;99.90;;;;;;4892417;29;20296;-76
2023/10/25 09:06:02;;;;;;;342.23;327.03;;;8.80;99.90;;;;;;4888009;29;20650;-76
2023/10/25 09:08:28;;;;;;;384.03;365.70;;;8.80;99.90;;;;;;4891243;29;20285;-76
2023/10/25 09:11:01;;;;;;;411.70;392.23;;;8.90;99.90;;;;;;4891784;29;20291;-76
2023/10/25 09:13:27;;;;;;;391.07;372.90;;;8.90;99.90;;;;;;4877862;29;20048;-76
2023/10/25 09:16:03;;;;;;;364.07;347.63;;;9.00;99.90;;;;;;4896676;29;20331;-76
2023/10/25 09:18:31;;;;;;;355.20;338.73;;;9.00;99.90;;;;;;4891986;29;20316;-76
2023/10/25 09:20:57;;;;;;;342.63;327.23;;;9.10;99.90;;;;;;4893551;29;20770;-76
2023/10/25 09:23:23;;;;;;;371.50;354.20;;;9.10;99.90;;;;;;4878188;29;20436;-76
2023/10/25 09:25:49;;;;;;;371.37;355.03;;;9.10;99.90;;;;;;4892743;29;20309;-76
2023/10/25 09:28:27;;;;;;;379.47;362.83;;;9.20;99.90;;;;;;4889733;29;20055;-76
2023/10/25 09:31:02;;;;;;;371.67;354.70;;;9.20;99.90;;;;;;4893272;29;20297;-76
2023/10/25 09:33:29;;;;;;;346.27;330.92;;;9.30;99.90;;;;;;4898200;29;20289;-76
2023/10/25 09:35:56;;;;;;;343.00;327.63;;;9.30;99.90;;;;;;4896151;29;20056;-76
2023/10/25 09:38:22;;;;;;;341.97;326.47;;;9.30;99.90;;;;;;4890563;29;20384;-76
2023/10/25 09:40:49;;;;;;;347.13;331.87;;;9.30;99.90;;;;;;4897307;29;20324;-76
2023/10/25 09:43:20;;;;;;;361.73;345.33;;;9.30;99.90;;;;;;4904324;29;20300;-76
2023/10/25 09:45:55;;;;;;;294.63;280.90;;;9.40;99.90;;;;;;4876207;29;20627;-76
2023/10/25 09:48:21;;;;;;;337.15;322.52;;;9.40;99.90;;;;;;4879137;29;20288;-75
2023/10/25 09:50:59;;;;;;;352.33;336.33;;;9.50;99.90;;;;;;4892699;29;20132;-74
2023/10/25 09:53:27;;;;;;;365.13;348.63;;;9.60;99.90;;;;;;4887111;29;20281;-74
2023/10/25 09:56:00;;;;;;;378.40;360.87;;;9.60;99.90;;;;;;4879688;29;20293;-74
2023/10/25 09:58:28;;;;;;;350.57;334.90;;;9.70;99.90;;;;;;4904009;29;20672;-74
2023/10/25 10:00:55;;;;;;;405.93;387.80;;;9.70;99.90;;;;;;4884329;29;20300;-74
2023/10/25 10:03:29;;;;;;;379.50;362.27;;;9.80;99.90;;;;;;4911363;29;20379;-74
2023/10/25 10:06:04;;;;;;;363.77;347.33;;;9.80;99.90;;;;;;4892824;29;20333;-74
2023/10/25 10:09:20;;;;;;;407.00;388.13;;;9.90;99.90;;;;;;4898177;29;20383;-74
2023/10/25 10:11:56;;;;;;;461.00;439.08;;;10.00;99.90;;;;;;4873028;29;20355;-74
2023/10/25 10:14:33;;;;;;;384.60;367.23;;;10.00;99.90;;;;;;4893628;29;20079;-74
2023/10/25 10:17:06;;;;;;;471.20;448.77;;;10.10;99.90;;;;;;4904148;29;20853;-74
2023/10/25 10:19:33;;;;;;;454.07;431.80;;;10.20;99.90;;;;;;4883620;29;20304;-74
2023/10/25 10:22:06;;;;;;;371.97;354.83;;;10.30;99.90;;;;;;4885911;29;20328;-74
2023/10/25 10:24:43;;;;;;;380.90;363.13;;;10.30;99.90;;;;;;4880172;29;20285;-74
2023/10/25 10:27:17;;;;;;;358.07;341.70;;;10.40;99.90;;;;;;4892229;29;20286;-74
2023/10/25 10:29:44;;;;;;;373.93;356.33;;;10.50;99.90;;;;;;4885138;29;20765;-74
2023/10/25 10:32:11;;;;;;;282.97;270.50;;;10.50;99.90;;;;;;4879684;29;20305;-74
2023/10/25 10:34:56;;;;;;;307.13;293.07;;;10.60;99.90;;;;;;4879403;29;20313;-74
2023/10/25 10:37:29;;;;;;;295.03;282.20;;;10.70;99.90;;;;;;4890077;29;20312;-74
2023/10/25 10:39:57;;;;;;;327.73;313.60;;;10.70;99.90;;;;;;4902152;29;20284;-74
2023/10/25 10:42:33;;;;;;;344.83;329.57;;;10.80;99.90;;;;;;4892817;29;20372;-74
2023/10/25 10:45:01;;;;;;;304.70;291.03;;;10.80;99.90;;;;;;4902804;29;20312;-75
2023/10/25 10:47:55;;;;;;;333.83;319.30;;;10.90;99.90;;;;;;4900294;29;20628;-76
2023/10/25 10:50:22;;;;;;;323.40;309.07;;;10.90;99.90;;;;;;4886733;29;20699;-75
2023/10/25 10:52:53;;;;;;;311.97;298.40;;;10.90;99.90;;;;;;4902454;29;20277;-76
2023/10/25 10:55:24;;;;;;;356.70;340.87;;;10.90;99.90;;;;;;4901564;29;20290;-75
2023/10/25 10:57:54;;;;;;;373.10;356.07;;;10.90;99.90;;;;;;4898666;29;20307;-75
2023/10/25 11:00:21;;;;;;;316.83;302.77;;;10.90;99.90;;;;;;4910883;29;20376;-76
2023/10/25 11:02:49;;;;;;;346.37;330.73;;;11.00;99.90;;;;;;4898099;29;20296;-76
2023/10/25 11:05:25;;;;;;;338.60;323.00;;;11.00;99.90;;;;;;4907156;29;20277;-76
2023/10/25 11:07:54;;;;;;;230.57;220.23;;;11.00;99.90;;;;;;4899974;29;20288;-76
2023/10/25 11:10:21;;;;;;;352.90;336.93;;;11.10;99.90;;;;;;4893717;29;20289;-76
2023/10/25 11:12:49;;;;;;;324.37;309.90;;;11.10;99.90;;;;;;4902836;29;20288;-75
2023/10/25 11:15:16;;;;;;;350.50;334.73;;;11.10;99.90;;;;;;4886410;29;20311;-75
2023/10/25 11:17:42;;;;;;;270.23;258.10;;;11.10;99.90;;;;;;4902362;29;20320;-76
2023/10/25 11:20:22;;;;;;;321.23;307.07;;;11.10;99.90;;;;;;4850994;29;20833;-77
2023/10/25 11:22:48;;;;;;;320.13;305.60;;;11.10;99.90;;;;;;4836112;29;20381;-76
2023/10/25 11:25:23;;;;;;;270.70;259.03;;;11.20;99.90;;;;;;4852420;29;21226;-76
2023/10/25 11:27:55;;;;;;;306.53;293.00;;;11.20;99.90;;;;;;4862865;29;20278;-76
2023/10/25 11:30:30;;;;;;;291.67;278.57;;;11.20;99.90;;;;;;4848719;29;20294;-76
2023/10/25 11:32:56;;;;;;;244.40;233.77;;;11.20;99.90;;;;;;4852947;29;20344;-76
2023/10/25 11:35:27;;;;;;;193.73;185.10;;;11.20;99.90;;;;;;4866851;29;20706;-76
2023/10/25 11:37:58;;;;;;;293.97;281.13;;;11.20;99.90;;;;;;4874086;29;20041;-76
2023/10/25 11:40:52;;;;;;;249.73;238.97;;;11.20;99.90;;;;;;4865942;29;20783;-76
2023/10/25 11:43:21;;;;;;;261.70;250.10;;;11.20;99.90;;;;;;4848128;29;20284;-76
2023/10/25 11:45:49;;;;;;;204.90;195.87;;;11.20;99.90;;;;;;4835512;29;20314;-75
2023/10/25 11:48:15;;;;;;;266.23;254.83;;;11.20;99.90;;;;;;4833211;29;20342;-76
2023/10/25 11:50:46;;;;;;;328.30;313.57;;;11.20;99.90;;;;;;4837149;29;20086;-76
2023/10/25 11:53:14;;;;;;;258.57;247.27;;;11.20;99.90;;;;;;4886911;29;20054;-76
2023/10/25 11:55:40;;;;;;;314.50;300.97;;;11.20;99.90;;;;;;4868444;29;20290;-76
2023/10/25 11:58:06;;;;;;;242.37;231.67;;;11.20;99.90;;;;;;4897233;29;20312;-76
2023/10/25 12:00:31;;;;;;;307.37;293.50;;;11.20;99.90;;;;;;4896520;29;20284;-75
2023/10/25 12:02:57;;;;;;;293.63;280.97;;;11.20;99.90;;;;;;4884728;29;20737;-76
2023/10/25 12:05:23;;;;;;;316.93;303.13;;;11.30;99.90;;;;;;4894216;29;20032;-76
2023/10/25 12:07:51;;;;;;;246.50;235.47;;;11.30;99.90;;;;;;4885944;29;20120;-76
2023/10/25 12:10:17;;;;;;;302.93;289.60;;;11.30;99.90;;;;;;4903176;29;20371;-76
2023/10/25 12:12:43;;;;;;;303.13;289.20;;;11.30;99.90;;;;;;4900798;29;20092;-77
2023/10/25 12:15:09;;;;;;;311.00;296.97;;;11.30;99.90;;;;;;4899421;29;20063;-76
2023/10/25 12:17:35;;;;;;;337.83;323.03;;;11.40;99.90;;;;;;4899290;29;20309;-76
2023/10/25 12:20:00;;;;;;;273.67;261.40;;;11.40;99.90;;;;;;4890044;29;20520;-76
2023/10/25 12:22:26;;;;;;;280.97;268.50;;;11.40;99.90;;;;;;4885403;29;20075;-76
2023/10/25 12:24:52;;;;;;;321.63;306.83;;;11.40;99.90;;;;;;4883938;29;20103;-76